RYR220U EKCH-LPPR
Flight info
| Callsign | RYR220U |
|---|---|
| Flight time | 3h 11m |
| Altitude | 38000 |
| Route | LANGO DCT SISGA/N0444F370 DCT KOVIN DCT NIDUV DCT KIHVI UN872 TERPO/N0438F350 UN872 ERIGA UN741 AZFIC DCT LOTEE DCT ELTEP/N0361F230 T328 ASPOR |
| Aircraft | B38M/M-SDE1FGHILORVWXY/HB1 |
Departure
| Time | 2026-04-24 06:53 |
|---|---|
| Airport | Copenhagen Kastrup Airport (EKCH) |
Arrival
| Time | 2026-04-24 10:04 |
|---|---|
| Airport | Francisco de Sá Carneiro Airport (LPPR) |
| Time | Latitude | Longitude | Altitude | Speed | Heading |
|---|---|---|---|---|---|
| 2026-04-24 06:20 | 55.62517 | 12.65765 | 19 ft | 0 kts | 2° |
| 2026-04-24 06:35 | 55.62507 | 12.65764 | 20 ft | 2 kts | 1° |
| 2026-04-24 06:35 | 55.62484 | 12.65765 | 19 ft | 4 kts | 352° |
| 2026-04-24 06:35 | 55.62458 | 12.65777 | 20 ft | 4 kts | 335° |
| 2026-04-24 06:35 | 55.62436 | 12.65801 | 18 ft | 2 kts | 318° |
| 2026-04-24 06:36 | 55.62432 | 12.65807 | 19 ft | 0 kts | 318° |
| 2026-04-24 06:38 | 55.62434 | 12.65804 | 17 ft | 1 kts | 316° |
| 2026-04-24 06:39 | 55.62441 | 12.65784 | 18 ft | 2 kts | 295° |
| 2026-04-24 06:39 | 55.62444 | 12.65745 | 18 ft | 4 kts | 273° |
| 2026-04-24 06:39 | 55.62446 | 12.65688 | 21 ft | 6 kts | 273° |
| 2026-04-24 06:39 | 55.62448 | 12.65604 | 20 ft | 8 kts | 270° |
| 2026-04-24 06:40 | 55.62445 | 12.65501 | 21 ft | 5 kts | 266° |
| 2026-04-24 06:40 | 55.62442 | 12.65406 | 20 ft | 9 kts | 267° |
| 2026-04-24 06:40 | 55.62439 | 12.65300 | 21 ft | 7 kts | 267° |
| 2026-04-24 06:40 | 55.62412 | 12.65211 | 25 ft | 9 kts | 214° |
| 2026-04-24 06:41 | 55.62343 | 12.65196 | 27 ft | 11 kts | 178° |
| 2026-04-24 06:41 | 55.62301 | 12.65198 | 25 ft | 6 kts | 178° |
| 2026-04-24 06:41 | 55.62249 | 12.65197 | 26 ft | 9 kts | 187° |
| 2026-04-24 06:41 | 55.62181 | 12.65147 | 27 ft | 12 kts | 212° |
| 2026-04-24 06:42 | 55.62104 | 12.65060 | 26 ft | 16 kts | 212° |
| 2026-04-24 06:42 | 55.61993 | 12.64933 | 24 ft | 22 kts | 213° |
| 2026-04-24 06:42 | 55.61877 | 12.64802 | 21 ft | 15 kts | 212° |
| 2026-04-24 06:42 | 55.61811 | 12.64725 | 23 ft | 11 kts | 213° |
| 2026-04-24 06:43 | 55.61737 | 12.64637 | 23 ft | 5 kts | 214° |
| 2026-04-24 06:43 | 55.61722 | 12.64620 | 25 ft | 5 kts | 214° |
| 2026-04-24 06:43 | 55.61708 | 12.64602 | 21 ft | 0 kts | 214° |
| 2026-04-24 06:48 | 55.61705 | 12.64599 | 21 ft | 2 kts | 214° |
| 2026-04-24 06:48 | 55.61684 | 12.64573 | 22 ft | 6 kts | 214° |
| 2026-04-24 06:48 | 55.61639 | 12.64522 | 22 ft | 10 kts | 212° |
| 2026-04-24 06:49 | 55.61564 | 12.64440 | 22 ft | 15 kts | 211° |
| 2026-04-24 06:49 | 55.61464 | 12.64330 | 22 ft | 19 kts | 212° |
| 2026-04-24 06:49 | 55.61350 | 12.64197 | 21 ft | 19 kts | 213° |
| 2026-04-24 06:49 | 55.61227 | 12.64052 | 19 ft | 23 kts | 214° |
| 2026-04-24 06:50 | 55.61088 | 12.63890 | 20 ft | 23 kts | 213° |
| 2026-04-24 06:50 | 55.60956 | 12.63739 | 26 ft | 21 kts | 213° |
| 2026-04-24 06:50 | 55.60831 | 12.63612 | 24 ft | 22 kts | 194° |
| 2026-04-24 06:50 | 55.60739 | 12.63684 | 27 ft | 12 kts | 130° |
| 2026-04-24 06:51 | 55.60731 | 12.63702 | 27 ft | 2 kts | 130° |
| 2026-04-24 06:51 | 55.60714 | 12.63737 | 27 ft | 6 kts | 131° |
| 2026-04-24 06:51 | 55.60694 | 12.63818 | 28 ft | 8 kts | 97° |
| 2026-04-24 06:51 | 55.60714 | 12.63928 | 28 ft | 11 kts | 53° |
| 2026-04-24 06:52 | 55.60781 | 12.64036 | 30 ft | 16 kts | 42° |
| 2026-04-24 06:52 | 55.60932 | 12.64266 | 26 ft | 55 kts | 41° |
| 2026-04-24 06:52 | 55.61458 | 12.65063 | 24 ft | 140 kts | 42° |
| 2026-04-24 06:52 | 55.62341 | 12.66428 | 158 ft | 195 kts | 39° |
| 2026-04-24 06:53 | 55.63424 | 12.68225 | 826 ft | 218 kts | 42° |
| 2026-04-24 06:53 | 55.64365 | 12.70044 | 2395 ft | 190 kts | 43° |
| 2026-04-24 06:53 | 55.65421 | 12.71644 | 2843 ft | 210 kts | 32° |
| 2026-04-24 06:53 | 55.66648 | 12.73302 | 3228 ft | 231 kts | 34° |
| 2026-04-24 06:54 | 55.67919 | 12.75094 | 3970 ft | 232 kts | 34° |
| 2026-04-24 06:54 | 55.69157 | 12.76925 | 4682 ft | 239 kts | 40° |
| 2026-04-24 06:54 | 55.70037 | 12.79505 | 5380 ft | 254 kts | 69° |
| 2026-04-24 06:54 | 55.70149 | 12.82647 | 6300 ft | 265 kts | 95° |
| 2026-04-24 06:55 | 55.69466 | 12.85826 | 6803 ft | 290 kts | 122° |
| 2026-04-24 06:55 | 55.67932 | 12.88227 | 7506 ft | 298 kts | 154° |
| 2026-04-24 06:55 | 55.65931 | 12.89430 | 8227 ft | 306 kts | 161° |
| 2026-04-24 06:55 | 55.63951 | 12.90725 | 9046 ft | 310 kts | 159° |
| 2026-04-24 06:56 | 55.61827 | 12.91516 | 9803 ft | 313 kts | 182° |
| 2026-04-24 06:56 | 55.59696 | 12.90748 | 10409 ft | 318 kts | 207° |
| 2026-04-24 06:56 | 55.57859 | 12.88523 | 10818 ft | 324 kts | 230° |
| 2026-04-24 06:56 | 55.56246 | 12.85611 | 11305 ft | 337 kts | 230° |
| 2026-04-24 06:57 | 55.54584 | 12.82634 | 11971 ft | 341 kts | 230° |
| 2026-04-24 06:57 | 55.52937 | 12.79584 | 12756 ft | 341 kts | 237° |
| 2026-04-24 06:57 | 55.51847 | 12.75963 | 13505 ft | 332 kts | 259° |
| 2026-04-24 06:57 | 55.51499 | 12.72019 | 14159 ft | 331 kts | 269° |
| 2026-04-24 06:58 | 55.51294 | 12.67953 | 14826 ft | 334 kts | 270° |
| 2026-04-24 06:58 | 55.51109 | 12.63849 | 15511 ft | 337 kts | 270° |
| 2026-04-24 06:58 | 55.50934 | 12.59701 | 16175 ft | 340 kts | 270° |
| 2026-04-24 06:58 | 55.50766 | 12.55522 | 16830 ft | 343 kts | 270° |
| 2026-04-24 06:59 | 55.50601 | 12.51300 | 17489 ft | 346 kts | 270° |
| 2026-04-24 06:59 | 55.50436 | 12.47039 | 18112 ft | 349 kts | 270° |
| 2026-04-24 06:59 | 55.50268 | 12.42735 | 18690 ft | 352 kts | 270° |
| 2026-04-24 06:59 | 55.50099 | 12.38408 | 19238 ft | 355 kts | 270° |
| 2026-04-24 07:00 | 55.49929 | 12.34100 | 19777 ft | 357 kts | 270° |
| 2026-04-24 07:00 | 55.49754 | 12.29712 | 20329 ft | 358 kts | 269° |
| 2026-04-24 07:00 | 55.49421 | 12.25344 | 20885 ft | 364 kts | 257° |
| 2026-04-24 07:00 | 55.48327 | 12.21260 | 21458 ft | 373 kts | 241° |
| 2026-04-24 07:01 | 55.46889 | 12.17419 | 21979 ft | 376 kts | 241° |
| 2026-04-24 07:01 | 55.45430 | 12.13562 | 22500 ft | 379 kts | 240° |
| 2026-04-24 07:01 | 55.43970 | 12.09751 | 23025 ft | 381 kts | 240° |
| 2026-04-24 07:01 | 55.42469 | 12.05869 | 23556 ft | 384 kts | 240° |
| 2026-04-24 07:02 | 55.40955 | 12.01972 | 24013 ft | 386 kts | 240° |
| 2026-04-24 07:02 | 55.39430 | 11.98057 | 24473 ft | 388 kts | 240° |
| 2026-04-24 07:02 | 55.37894 | 11.94124 | 24915 ft | 390 kts | 240° |
| 2026-04-24 07:02 | 55.36371 | 11.90227 | 25355 ft | 392 kts | 240° |
| 2026-04-24 07:03 | 55.34818 | 11.86260 | 25792 ft | 394 kts | 240° |
| 2026-04-24 07:03 | 55.33257 | 11.82282 | 26227 ft | 396 kts | 240° |
| 2026-04-24 07:03 | 55.31684 | 11.78277 | 26664 ft | 398 kts | 240° |
| 2026-04-24 07:03 | 55.30103 | 11.74261 | 27073 ft | 400 kts | 239° |
| 2026-04-24 07:04 | 55.28535 | 11.70283 | 27478 ft | 402 kts | 239° |
| 2026-04-24 07:04 | 55.26932 | 11.66222 | 27879 ft | 404 kts | 239° |
| 2026-04-24 07:04 | 55.25328 | 11.62165 | 28290 ft | 405 kts | 239° |
| 2026-04-24 07:04 | 55.23721 | 11.58107 | 28716 ft | 406 kts | 239° |
| 2026-04-24 07:05 | 55.22121 | 11.54074 | 29034 ft | 409 kts | 239° |
| 2026-04-24 07:05 | 55.20488 | 11.49966 | 29392 ft | 412 kts | 239° |
| 2026-04-24 07:05 | 55.18845 | 11.45839 | 29772 ft | 413 kts | 239° |
| 2026-04-24 07:05 | 55.17188 | 11.41682 | 30126 ft | 415 kts | 239° |
| 2026-04-24 07:06 | 55.15544 | 11.37565 | 30434 ft | 417 kts | 239° |
| 2026-04-24 07:06 | 55.13876 | 11.33398 | 30738 ft | 419 kts | 239° |
| 2026-04-24 07:06 | 55.12198 | 11.29209 | 31042 ft | 420 kts | 239° |
| 2026-04-24 07:06 | 55.10513 | 11.25014 | 31354 ft | 422 kts | 239° |
| 2026-04-24 07:07 | 55.08823 | 11.20809 | 31648 ft | 423 kts | 239° |
| 2026-04-24 07:07 | 55.07145 | 11.16644 | 31940 ft | 424 kts | 239° |
| 2026-04-24 07:07 | 55.03726 | 11.08178 | 32525 ft | 427 kts | 239° |
| 2026-04-24 07:08 | 55.02000 | 11.03914 | 32851 ft | 427 kts | 239° |
| 2026-04-24 07:08 | 55.00285 | 10.99686 | 33174 ft | 428 kts | 239° |
| 2026-04-24 07:08 | 54.98583 | 10.95494 | 33530 ft | 427 kts | 239° |
| 2026-04-24 07:08 | 54.96871 | 10.91285 | 33998 ft | 424 kts | 239° |
| 2026-04-24 07:09 | 54.95171 | 10.87113 | 34386 ft | 422 kts | 238° |
| 2026-04-24 07:09 | 54.93241 | 10.83234 | 34695 ft | 425 kts | 231° |
| 2026-04-24 07:09 | 54.91193 | 10.79515 | 34991 ft | 425 kts | 231° |
| 2026-04-24 07:09 | 54.89179 | 10.75848 | 35271 ft | 424 kts | 231° |
| 2026-04-24 07:10 | 54.87138 | 10.72146 | 35569 ft | 423 kts | 231° |
| 2026-04-24 07:10 | 54.85097 | 10.68450 | 35863 ft | 423 kts | 231° |
| 2026-04-24 07:10 | 54.83059 | 10.64768 | 36131 ft | 422 kts | 231° |
| 2026-04-24 07:10 | 54.81025 | 10.61098 | 36400 ft | 421 kts | 231° |
| 2026-04-24 07:11 | 54.79014 | 10.57475 | 36621 ft | 421 kts | 231° |
| 2026-04-24 07:11 | 54.76974 | 10.53806 | 36806 ft | 422 kts | 231° |
| 2026-04-24 07:11 | 54.74931 | 10.50137 | 37038 ft | 422 kts | 231° |
| 2026-04-24 07:11 | 54.72886 | 10.46472 | 37276 ft | 421 kts | 231° |
| 2026-04-24 07:12 | 54.70848 | 10.42823 | 37523 ft | 421 kts | 231° |
| 2026-04-24 07:12 | 54.68842 | 10.39237 | 37728 ft | 420 kts | 231° |
| 2026-04-24 07:12 | 54.66802 | 10.35596 | 37942 ft | 420 kts | 231° |
| 2026-04-24 07:12 | 54.64769 | 10.31974 | 38128 ft | 420 kts | 231° |
| 2026-04-24 07:13 | 54.60699 | 10.24738 | 38147 ft | 418 kts | 231° |
| 2026-04-24 07:13 | 54.56642 | 10.17547 | 38135 ft | 418 kts | 230° |
| 2026-04-24 07:14 | 54.52596 | 10.10396 | 38157 ft | 419 kts | 230° |
| 2026-04-24 07:14 | 54.48519 | 10.03213 | 38160 ft | 419 kts | 230° |
| 2026-04-24 07:15 | 54.44435 | 9.96041 | 38158 ft | 419 kts | 230° |
| 2026-04-24 07:15 | 54.40352 | 9.88890 | 38160 ft | 419 kts | 230° |
| 2026-04-24 07:16 | 54.36264 | 9.81754 | 38159 ft | 419 kts | 230° |
| 2026-04-24 07:16 | 54.32201 | 9.74681 | 38153 ft | 419 kts | 230° |
| 2026-04-24 07:17 | 54.28100 | 9.67565 | 38156 ft | 419 kts | 230° |
| 2026-04-24 07:17 | 54.24000 | 9.60472 | 38158 ft | 418 kts | 230° |
| 2026-04-24 07:18 | 54.19908 | 9.53413 | 38155 ft | 416 kts | 229° |
| 2026-04-24 07:18 | 54.15842 | 9.46420 | 38157 ft | 416 kts | 229° |
| 2026-04-24 07:19 | 54.11756 | 9.39413 | 38141 ft | 416 kts | 229° |
| 2026-04-24 07:19 | 54.07683 | 9.32450 | 38167 ft | 416 kts | 229° |
| 2026-04-24 07:20 | 54.03589 | 9.25471 | 38163 ft | 416 kts | 229° |
| 2026-04-24 07:20 | 53.99483 | 9.18491 | 38169 ft | 416 kts | 229° |
| 2026-04-24 07:21 | 53.95400 | 9.11573 | 38171 ft | 416 kts | 229° |
| 2026-04-24 07:21 | 53.91308 | 9.04659 | 38186 ft | 416 kts | 228° |
| 2026-04-24 07:22 | 53.87188 | 8.97718 | 38194 ft | 417 kts | 228° |
| 2026-04-24 07:22 | 53.83062 | 8.90787 | 38200 ft | 417 kts | 227° |
| 2026-04-24 07:23 | 53.78950 | 8.83900 | 38201 ft | 414 kts | 227° |
| 2026-04-24 07:23 | 53.74865 | 8.77078 | 38211 ft | 415 kts | 227° |
| 2026-04-24 07:24 | 53.70752 | 8.70229 | 38214 ft | 415 kts | 227° |
| 2026-04-24 07:24 | 53.66654 | 8.63425 | 38198 ft | 415 kts | 227° |
| 2026-04-24 07:25 | 53.62527 | 8.56593 | 38209 ft | 415 kts | 227° |
| 2026-04-24 07:25 | 53.58390 | 8.49765 | 38214 ft | 415 kts | 227° |
| 2026-04-24 07:26 | 53.54285 | 8.43008 | 38226 ft | 415 kts | 227° |
| 2026-04-24 07:26 | 53.50145 | 8.36213 | 38226 ft | 416 kts | 227° |
| 2026-04-24 07:27 | 53.45994 | 8.29419 | 38223 ft | 415 kts | 227° |
| 2026-04-24 07:27 | 53.41850 | 8.22659 | 38239 ft | 414 kts | 226° |
| 2026-04-24 07:28 | 53.37747 | 8.15981 | 38241 ft | 413 kts | 226° |
| 2026-04-24 07:28 | 53.33607 | 8.09264 | 38240 ft | 413 kts | 226° |
| 2026-04-24 07:29 | 53.29493 | 8.02608 | 38239 ft | 413 kts | 226° |
| 2026-04-24 07:29 | 53.25358 | 7.95936 | 38254 ft | 413 kts | 226° |
| 2026-04-24 07:30 | 53.21216 | 7.89272 | 38254 ft | 413 kts | 226° |
| 2026-04-24 07:30 | 53.17068 | 7.82618 | 38254 ft | 413 kts | 226° |
| 2026-04-24 07:31 | 53.12939 | 7.76014 | 38263 ft | 413 kts | 226° |
| 2026-04-24 07:31 | 53.08781 | 7.69379 | 38265 ft | 413 kts | 225° |
| 2026-04-24 07:32 | 53.04613 | 7.62750 | 38263 ft | 413 kts | 225° |
| 2026-04-24 07:32 | 53.00467 | 7.56173 | 38253 ft | 411 kts | 225° |
| 2026-04-24 07:33 | 52.96344 | 7.49651 | 38272 ft | 412 kts | 225° |
| 2026-04-24 07:33 | 52.92188 | 7.43094 | 38276 ft | 412 kts | 225° |
| 2026-04-24 07:34 | 52.88032 | 7.36557 | 38273 ft | 411 kts | 224° |
| 2026-04-24 07:34 | 52.83896 | 7.30068 | 38273 ft | 411 kts | 224° |
| 2026-04-24 07:35 | 52.80434 | 7.24650 | 38280 ft | 412 kts | 224° |
| 2026-04-24 07:35 | 52.76265 | 7.18145 | 38277 ft | 412 kts | 224° |
| 2026-04-24 07:36 | 52.72091 | 7.11647 | 38290 ft | 412 kts | 224° |
| 2026-04-24 07:36 | 52.67911 | 7.05159 | 38289 ft | 412 kts | 224° |
| 2026-04-24 07:37 | 52.63761 | 6.98736 | 38293 ft | 410 kts | 224° |
| 2026-04-24 07:37 | 52.59598 | 6.92310 | 38288 ft | 409 kts | 223° |
| 2026-04-24 07:38 | 52.55434 | 6.85899 | 38282 ft | 410 kts | 223° |
| 2026-04-24 07:38 | 52.51259 | 6.79488 | 38291 ft | 410 kts | 223° |
| 2026-04-24 07:39 | 52.47085 | 6.73098 | 38294 ft | 410 kts | 223° |
| 2026-04-24 07:39 | 52.42936 | 6.66762 | 38295 ft | 410 kts | 223° |
| 2026-04-24 07:40 | 52.38749 | 6.60386 | 38295 ft | 410 kts | 223° |
| 2026-04-24 07:40 | 52.34564 | 6.54031 | 38299 ft | 410 kts | 223° |
| 2026-04-24 07:41 | 52.30388 | 6.47706 | 38300 ft | 411 kts | 223° |
| 2026-04-24 07:41 | 52.26184 | 6.41355 | 38316 ft | 410 kts | 222° |
| 2026-04-24 07:42 | 52.22003 | 6.35058 | 38296 ft | 408 kts | 222° |
| 2026-04-24 07:42 | 52.17843 | 6.28807 | 38308 ft | 408 kts | 222° |
| 2026-04-24 07:43 | 52.13664 | 6.22546 | 38312 ft | 408 kts | 222° |
| 2026-04-24 07:43 | 52.09476 | 6.16287 | 38312 ft | 408 kts | 222° |
| 2026-04-24 07:44 | 52.05281 | 6.10034 | 38315 ft | 408 kts | 222° |
| 2026-04-24 07:44 | 52.01090 | 6.03803 | 38309 ft | 408 kts | 222° |
| 2026-04-24 07:45 | 51.96916 | 5.97616 | 38308 ft | 408 kts | 222° |
| 2026-04-24 07:45 | 51.92711 | 5.91397 | 38311 ft | 408 kts | 221° |
| 2026-04-24 07:46 | 51.88502 | 5.85191 | 38309 ft | 409 kts | 221° |
| 2026-04-24 07:46 | 51.84310 | 5.79025 | 38313 ft | 409 kts | 221° |
| 2026-04-24 07:47 | 51.80086 | 5.72829 | 38317 ft | 409 kts | 221° |
| 2026-04-24 07:47 | 51.75895 | 5.66698 | 38319 ft | 408 kts | 221° |
| 2026-04-24 07:48 | 51.71663 | 5.60521 | 38315 ft | 408 kts | 221° |
| 2026-04-24 07:48 | 51.67468 | 5.54417 | 38304 ft | 408 kts | 221° |
| 2026-04-24 07:49 | 51.63232 | 5.48267 | 38321 ft | 410 kts | 221° |
| 2026-04-24 07:49 | 51.58981 | 5.42113 | 38318 ft | 410 kts | 220° |
| 2026-04-24 07:50 | 51.54752 | 5.36006 | 38320 ft | 410 kts | 220° |
| 2026-04-24 07:50 | 51.50495 | 5.29874 | 38320 ft | 410 kts | 220° |
| 2026-04-24 07:51 | 51.46267 | 5.23801 | 38317 ft | 409 kts | 220° |
| 2026-04-24 07:51 | 51.42017 | 5.17712 | 38325 ft | 410 kts | 220° |
| 2026-04-24 07:52 | 51.37750 | 5.11614 | 38321 ft | 410 kts | 220° |
| 2026-04-24 07:52 | 51.33511 | 5.05573 | 38324 ft | 410 kts | 220° |
| 2026-04-24 07:53 | 51.29241 | 4.99503 | 38325 ft | 410 kts | 220° |
| 2026-04-24 07:53 | 51.24961 | 4.93433 | 38335 ft | 410 kts | 220° |
| 2026-04-24 07:54 | 51.20685 | 4.87385 | 38332 ft | 411 kts | 220° |
| 2026-04-24 07:54 | 51.16426 | 4.81378 | 38334 ft | 411 kts | 220° |
| 2026-04-24 07:55 | 51.12131 | 4.75334 | 38336 ft | 411 kts | 220° |
| 2026-04-24 07:55 | 51.07860 | 4.69341 | 38344 ft | 409 kts | 219° |
| 2026-04-24 07:56 | 51.03588 | 4.63358 | 38347 ft | 408 kts | 219° |
| 2026-04-24 07:56 | 50.99336 | 4.57416 | 38346 ft | 408 kts | 219° |
| 2026-04-24 07:57 | 50.95063 | 4.51461 | 38347 ft | 408 kts | 219° |
| 2026-04-24 07:57 | 50.90783 | 4.45510 | 38346 ft | 408 kts | 219° |
| 2026-04-24 07:58 | 50.86521 | 4.39600 | 38346 ft | 408 kts | 219° |
| 2026-04-24 07:58 | 50.82251 | 4.33692 | 38345 ft | 408 kts | 219° |
| 2026-04-24 07:59 | 50.77969 | 4.27784 | 38330 ft | 409 kts | 219° |
| 2026-04-24 07:59 | 50.73662 | 4.21854 | 38337 ft | 410 kts | 219° |
| 2026-04-24 08:00 | 50.69378 | 4.15972 | 38332 ft | 410 kts | 219° |
| 2026-04-24 08:00 | 50.65077 | 4.10081 | 38328 ft | 410 kts | 219° |
| 2026-04-24 08:01 | 50.60586 | 4.04600 | 38311 ft | 406 kts | 206° |
| 2026-04-24 08:01 | 50.55595 | 4.00331 | 38291 ft | 408 kts | 208° |
| 2026-04-24 08:02 | 50.50595 | 3.96026 | 38312 ft | 410 kts | 207° |
| 2026-04-24 08:02 | 50.45609 | 3.91754 | 38311 ft | 410 kts | 207° |
| 2026-04-24 08:03 | 50.40587 | 3.87463 | 38306 ft | 410 kts | 207° |
| 2026-04-24 08:03 | 50.35599 | 3.83210 | 38298 ft | 410 kts | 207° |
| 2026-04-24 08:04 | 50.30566 | 3.78930 | 38304 ft | 411 kts | 207° |
| 2026-04-24 08:04 | 50.25526 | 3.74654 | 38298 ft | 411 kts | 207° |
| 2026-04-24 08:05 | 50.20524 | 3.70421 | 38297 ft | 411 kts | 207° |
| 2026-04-24 08:05 | 50.15485 | 3.66167 | 38302 ft | 411 kts | 207° |
| 2026-04-24 08:06 | 50.10447 | 3.61924 | 38291 ft | 412 kts | 207° |
| 2026-04-24 08:06 | 50.05419 | 3.57699 | 38290 ft | 413 kts | 207° |
| 2026-04-24 08:07 | 50.00353 | 3.53453 | 38286 ft | 413 kts | 207° |
| 2026-04-24 08:07 | 49.95279 | 3.49210 | 38287 ft | 413 kts | 207° |
| 2026-04-24 08:08 | 49.90237 | 3.45005 | 38277 ft | 413 kts | 207° |
| 2026-04-24 08:09 | 49.82594 | 3.38648 | 38283 ft | 415 kts | 207° |
| 2026-04-24 08:09 | 49.77528 | 3.34448 | 38283 ft | 415 kts | 207° |
| 2026-04-24 08:10 | 49.72432 | 3.30232 | 38278 ft | 415 kts | 207° |
| 2026-04-24 08:10 | 49.67348 | 3.26037 | 38274 ft | 416 kts | 207° |
| 2026-04-24 08:11 | 49.62246 | 3.21837 | 38278 ft | 418 kts | 207° |
| 2026-04-24 08:11 | 49.57112 | 3.17618 | 38277 ft | 417 kts | 206° |
| 2026-04-24 08:12 | 49.52005 | 3.13433 | 38284 ft | 417 kts | 207° |
| 2026-04-24 08:12 | 49.49592 | 3.10958 | 38253 ft | 418 kts | 221° |
| 2026-04-24 08:12 | 49.47721 | 3.07542 | 38265 ft | 421 kts | 235° |
| 2026-04-24 08:13 | 49.44640 | 2.99780 | 38273 ft | 427 kts | 237° |
| 2026-04-24 08:13 | 49.41641 | 2.91876 | 38274 ft | 428 kts | 237° |
| 2026-04-24 08:14 | 49.38690 | 2.83981 | 38270 ft | 428 kts | 237° |
| 2026-04-24 08:14 | 49.35717 | 2.76027 | 38270 ft | 428 kts | 237° |
| 2026-04-24 08:15 | 49.32881 | 2.68051 | 38271 ft | 428 kts | 239° |
| 2026-04-24 08:15 | 49.30040 | 2.59980 | 38275 ft | 429 kts | 239° |
| 2026-04-24 08:16 | 49.27203 | 2.51961 | 38273 ft | 429 kts | 239° |
| 2026-04-24 08:16 | 49.24355 | 2.43938 | 38282 ft | 431 kts | 239° |
| 2026-04-24 08:17 | 49.21484 | 2.35874 | 38269 ft | 431 kts | 239° |
| 2026-04-24 08:17 | 49.18567 | 2.27852 | 38265 ft | 431 kts | 238° |
| 2026-04-24 08:18 | 49.15622 | 2.19857 | 38271 ft | 431 kts | 239° |
| 2026-04-24 08:18 | 49.12677 | 2.11875 | 38266 ft | 435 kts | 239° |
| 2026-04-24 08:19 | 49.09717 | 2.03774 | 38259 ft | 436 kts | 244° |
| 2026-04-24 08:19 | 49.07268 | 1.95353 | 38259 ft | 436 kts | 244° |
| 2026-04-24 08:20 | 49.04727 | 1.86900 | 38259 ft | 437 kts | 244° |
| 2026-04-24 08:20 | 49.02184 | 1.78510 | 38260 ft | 437 kts | 243° |
| 2026-04-24 08:21 | 48.99617 | 1.70072 | 38259 ft | 441 kts | 245° |
| 2026-04-24 08:21 | 48.97032 | 1.61604 | 38262 ft | 443 kts | 244° |
| 2026-04-24 08:22 | 48.94865 | 1.54533 | 38263 ft | 443 kts | 245° |
| 2026-04-24 08:22 | 48.91825 | 1.44638 | 38267 ft | 443 kts | 244° |
| 2026-04-24 08:23 | 48.89644 | 1.37570 | 38263 ft | 443 kts | 244° |
| 2026-04-24 08:23 | 48.87015 | 1.29072 | 38263 ft | 442 kts | 245° |
| 2026-04-24 08:24 | 48.84411 | 1.20684 | 38260 ft | 440 kts | 245° |
| 2026-04-24 08:24 | 48.81793 | 1.12280 | 38261 ft | 440 kts | 245° |
| 2026-04-24 08:25 | 48.79165 | 1.03869 | 38256 ft | 440 kts | 245° |
| 2026-04-24 08:25 | 48.76545 | 0.95513 | 38253 ft | 440 kts | 245° |
| 2026-04-24 08:26 | 48.73761 | 0.87232 | 38251 ft | 440 kts | 239° |
| 2026-04-24 08:26 | 48.70616 | 0.79375 | 38233 ft | 436 kts | 239° |
| 2026-04-24 08:27 | 48.67445 | 0.71540 | 38244 ft | 436 kts | 239° |
| 2026-04-24 08:27 | 48.64260 | 0.63702 | 38234 ft | 437 kts | 239° |
| 2026-04-24 08:28 | 48.61082 | 0.55907 | 38247 ft | 439 kts | 239° |
| 2026-04-24 08:28 | 48.57871 | 0.48051 | 38237 ft | 438 kts | 239° |
| 2026-04-24 08:29 | 48.54662 | 0.40225 | 38247 ft | 437 kts | 239° |
| 2026-04-24 08:29 | 48.51461 | 0.32439 | 38236 ft | 435 kts | 238° |
| 2026-04-24 08:30 | 48.48284 | 0.24733 | 38225 ft | 435 kts | 239° |
| 2026-04-24 08:30 | 48.45073 | 0.16968 | 38232 ft | 435 kts | 239° |
| 2026-04-24 08:31 | 48.41857 | 0.09215 | 38229 ft | 437 kts | 238° |
| 2026-04-24 08:31 | 48.38644 | 0.01488 | 38222 ft | 438 kts | 239° |
| 2026-04-24 08:32 | 48.35250 | -0.06146 | 38226 ft | 435 kts | 234° |
| 2026-04-24 08:32 | 48.31648 | -0.13425 | 38211 ft | 436 kts | 234° |
| 2026-04-24 08:33 | 48.28077 | -0.20730 | 38213 ft | 435 kts | 234° |
| 2026-04-24 08:33 | 48.24427 | -0.28007 | 38217 ft | 435 kts | 234° |
| 2026-04-24 08:34 | 48.20738 | -0.35233 | 38203 ft | 437 kts | 233° |
| 2026-04-24 08:34 | 48.17052 | -0.42444 | 38195 ft | 437 kts | 234° |
| 2026-04-24 08:35 | 48.13344 | -0.49681 | 38188 ft | 437 kts | 234° |
| 2026-04-24 08:35 | 48.09630 | -0.56909 | 38188 ft | 438 kts | 234° |
| 2026-04-24 08:36 | 48.05935 | -0.64082 | 38186 ft | 438 kts | 234° |
| 2026-04-24 08:36 | 48.02205 | -0.71303 | 38181 ft | 438 kts | 233° |
| 2026-04-24 08:37 | 47.98468 | -0.78517 | 38188 ft | 438 kts | 234° |
| 2026-04-24 08:37 | 47.94752 | -0.85673 | 38185 ft | 439 kts | 233° |
| 2026-04-24 08:38 | 47.91021 | -0.92840 | 38180 ft | 436 kts | 233° |
| 2026-04-24 08:38 | 47.87292 | -0.99983 | 38185 ft | 436 kts | 233° |
| 2026-04-24 08:39 | 47.83554 | -1.07125 | 38186 ft | 437 kts | 233° |
| 2026-04-24 08:39 | 47.79839 | -1.14203 | 38185 ft | 436 kts | 233° |
| 2026-04-24 08:40 | 47.76092 | -1.21326 | 38177 ft | 437 kts | 233° |
| 2026-04-24 08:40 | 47.72331 | -1.28455 | 38185 ft | 437 kts | 232° |
| 2026-04-24 08:41 | 47.68579 | -1.35549 | 38176 ft | 436 kts | 232° |
| 2026-04-24 08:41 | 47.64848 | -1.42587 | 38172 ft | 436 kts | 232° |
| 2026-04-24 08:42 | 47.61085 | -1.49671 | 38172 ft | 436 kts | 232° |
| 2026-04-24 08:42 | 47.57059 | -1.56413 | 38178 ft | 437 kts | 228° |
| 2026-04-24 08:43 | 47.53022 | -1.63061 | 38166 ft | 437 kts | 229° |
| 2026-04-24 08:43 | 47.48962 | -1.69772 | 38164 ft | 436 kts | 228° |
| 2026-04-24 08:44 | 47.44925 | -1.76428 | 38159 ft | 434 kts | 228° |
| 2026-04-24 08:44 | 47.40902 | -1.83046 | 38152 ft | 435 kts | 228° |
| 2026-04-24 08:45 | 47.36847 | -1.89700 | 38151 ft | 434 kts | 228° |
| 2026-04-24 08:45 | 47.34748 | -1.92784 | 38142 ft | 434 kts | 216° |
| 2026-04-24 08:45 | 47.32221 | -1.95154 | 38186 ft | 432 kts | 212° |
| 2026-04-24 08:46 | 47.27307 | -1.99660 | 38147 ft | 434 kts | 211° |
| 2026-04-24 08:46 | 47.22178 | -2.04267 | 38141 ft | 434 kts | 211° |
| 2026-04-24 08:47 | 47.17016 | -2.08871 | 38163 ft | 430 kts | 211° |
| 2026-04-24 08:47 | 47.11901 | -2.13421 | 38156 ft | 431 kts | 210° |
| 2026-04-24 08:48 | 47.06808 | -2.17943 | 38121 ft | 429 kts | 211° |
| 2026-04-24 08:48 | 47.01679 | -2.22485 | 38132 ft | 430 kts | 211° |
| 2026-04-24 08:49 | 46.96554 | -2.27014 | 38131 ft | 430 kts | 210° |
| 2026-04-24 08:49 | 46.91426 | -2.31534 | 38124 ft | 431 kts | 210° |
| 2026-04-24 08:50 | 46.86505 | -2.36522 | 38097 ft | 431 kts | 227° |
| 2026-04-24 08:50 | 46.84747 | -2.40052 | 38152 ft | 431 kts | 238° |
| 2026-04-24 08:50 | 46.83168 | -2.43799 | 38108 ft | 434 kts | 237° |
| 2026-04-24 08:51 | 46.80101 | -2.51336 | 38128 ft | 434 kts | 238° |
| 2026-04-24 08:51 | 46.77063 | -2.58971 | 38129 ft | 434 kts | 238° |
| 2026-04-24 08:52 | 46.74052 | -2.66561 | 38137 ft | 434 kts | 238° |
| 2026-04-24 08:52 | 46.71017 | -2.74193 | 38133 ft | 434 kts | 238° |
| 2026-04-24 08:53 | 46.67998 | -2.81763 | 38131 ft | 434 kts | 238° |
| 2026-04-24 08:53 | 46.64956 | -2.89371 | 38135 ft | 435 kts | 238° |
| 2026-04-24 08:54 | 46.61900 | -2.96991 | 38126 ft | 435 kts | 237° |
| 2026-04-24 08:54 | 46.58859 | -3.04554 | 38127 ft | 435 kts | 238° |
| 2026-04-24 08:55 | 46.55381 | -3.11663 | 38139 ft | 429 kts | 223° |
| 2026-04-24 08:55 | 46.51235 | -3.17967 | 38110 ft | 432 kts | 224° |
| 2026-04-24 08:56 | 46.47064 | -3.24263 | 38131 ft | 432 kts | 224° |
| 2026-04-24 08:56 | 46.42880 | -3.30547 | 38120 ft | 432 kts | 224° |
| 2026-04-24 08:57 | 46.38694 | -3.36818 | 38119 ft | 432 kts | 224° |
| 2026-04-24 08:57 | 46.34506 | -3.43079 | 38113 ft | 432 kts | 224° |
| 2026-04-24 08:58 | 46.30344 | -3.49285 | 38109 ft | 432 kts | 224° |
| 2026-04-24 08:58 | 46.26147 | -3.55529 | 38105 ft | 432 kts | 224° |
| 2026-04-24 08:59 | 46.21951 | -3.61758 | 38110 ft | 433 kts | 224° |
| 2026-04-24 08:59 | 46.17742 | -3.67991 | 38104 ft | 433 kts | 223° |
| 2026-04-24 09:00 | 46.13549 | -3.74185 | 38103 ft | 433 kts | 223° |
| 2026-04-24 09:00 | 46.09337 | -3.80395 | 38101 ft | 433 kts | 223° |
| 2026-04-24 09:01 | 46.05111 | -3.86610 | 38101 ft | 434 kts | 223° |
| 2026-04-24 09:01 | 46.00877 | -3.92820 | 38094 ft | 434 kts | 223° |
| 2026-04-24 09:02 | 45.96666 | -3.98984 | 38098 ft | 434 kts | 223° |
| 2026-04-24 09:02 | 45.92431 | -4.05169 | 38092 ft | 434 kts | 223° |
| 2026-04-24 09:03 | 45.88183 | -4.11358 | 38085 ft | 434 kts | 223° |
| 2026-04-24 09:03 | 45.83935 | -4.17533 | 38086 ft | 435 kts | 223° |
| 2026-04-24 09:04 | 45.79682 | -4.23701 | 38086 ft | 435 kts | 223° |
| 2026-04-24 09:04 | 45.75454 | -4.29820 | 38078 ft | 434 kts | 223° |
| 2026-04-24 09:05 | 45.71192 | -4.35972 | 38081 ft | 435 kts | 223° |
| 2026-04-24 09:05 | 45.66931 | -4.42108 | 38076 ft | 434 kts | 223° |
| 2026-04-24 09:06 | 45.62667 | -4.48236 | 38069 ft | 434 kts | 223° |
| 2026-04-24 09:06 | 45.58404 | -4.54348 | 38072 ft | 434 kts | 223° |
| 2026-04-24 09:07 | 45.54166 | -4.60410 | 38070 ft | 434 kts | 223° |
| 2026-04-24 09:07 | 45.47760 | -4.69548 | 38080 ft | 433 kts | 223° |
| 2026-04-24 09:08 | 45.43521 | -4.75577 | 38060 ft | 429 kts | 223° |
| 2026-04-24 09:08 | 45.39291 | -4.81581 | 38062 ft | 429 kts | 223° |
| 2026-04-24 09:09 | 45.35082 | -4.87540 | 38062 ft | 429 kts | 223° |
| 2026-04-24 09:09 | 45.30843 | -4.93530 | 38062 ft | 429 kts | 223° |
| 2026-04-24 09:10 | 45.27311 | -4.98510 | 38061 ft | 429 kts | 223° |
| 2026-04-24 09:10 | 45.22396 | -5.05425 | 38063 ft | 425 kts | 222° |
| 2026-04-24 09:11 | 45.18191 | -5.11326 | 38059 ft | 425 kts | 222° |
| 2026-04-24 09:11 | 45.14693 | -5.16226 | 38058 ft | 425 kts | 222° |
| 2026-04-24 09:12 | 45.10480 | -5.22115 | 38057 ft | 425 kts | 222° |
| 2026-04-24 09:12 | 45.06264 | -5.27995 | 38049 ft | 425 kts | 222° |
| 2026-04-24 09:13 | 45.02040 | -5.33874 | 38057 ft | 427 kts | 222° |
| 2026-04-24 09:13 | 44.97833 | -5.39716 | 38061 ft | 426 kts | 222° |
| 2026-04-24 09:14 | 44.93605 | -5.45575 | 38054 ft | 426 kts | 222° |
| 2026-04-24 09:14 | 44.89367 | -5.51434 | 38055 ft | 426 kts | 222° |
| 2026-04-24 09:15 | 44.85135 | -5.57275 | 38054 ft | 426 kts | 223° |
| 2026-04-24 09:15 | 44.80877 | -5.63137 | 38063 ft | 429 kts | 223° |
| 2026-04-24 09:16 | 44.76635 | -5.68968 | 38063 ft | 428 kts | 223° |
| 2026-04-24 09:16 | 44.72363 | -5.74827 | 38065 ft | 426 kts | 222° |
| 2026-04-24 09:17 | 44.68126 | -5.80627 | 38066 ft | 424 kts | 222° |
| 2026-04-24 09:17 | 44.63649 | -5.85884 | 38086 ft | 421 kts | 213° |
| 2026-04-24 09:18 | 44.58852 | -5.90654 | 38068 ft | 422 kts | 213° |
| 2026-04-24 09:18 | 44.54041 | -5.95420 | 38074 ft | 422 kts | 213° |
| 2026-04-24 09:19 | 44.49237 | -6.00169 | 38072 ft | 422 kts | 213° |
| 2026-04-24 09:19 | 44.44464 | -6.04878 | 38074 ft | 422 kts | 213° |
| 2026-04-24 09:20 | 44.38852 | -6.10400 | 38100 ft | 420 kts | 213° |
| 2026-04-24 09:20 | 44.34888 | -6.14294 | 38071 ft | 417 kts | 213° |
| 2026-04-24 09:21 | 44.30126 | -6.18963 | 38079 ft | 418 kts | 213° |
| 2026-04-24 09:21 | 44.25390 | -6.23596 | 38080 ft | 418 kts | 213° |
| 2026-04-24 09:22 | 44.20633 | -6.28242 | 38087 ft | 416 kts | 213° |
| 2026-04-24 09:22 | 44.15912 | -6.32843 | 38089 ft | 416 kts | 213° |
| 2026-04-24 09:23 | 44.11185 | -6.37440 | 38092 ft | 416 kts | 213° |
| 2026-04-24 09:23 | 44.06440 | -6.42046 | 38092 ft | 416 kts | 213° |
| 2026-04-24 09:24 | 44.01694 | -6.46644 | 38125 ft | 415 kts | 213° |
| 2026-04-24 09:24 | 43.96966 | -6.51214 | 38095 ft | 413 kts | 213° |
| 2026-04-24 09:25 | 43.92266 | -6.55750 | 38103 ft | 413 kts | 213° |
| 2026-04-24 09:25 | 43.87534 | -6.60307 | 38106 ft | 413 kts | 213° |
| 2026-04-24 09:26 | 43.82839 | -6.64819 | 38113 ft | 413 kts | 213° |
| 2026-04-24 09:26 | 43.78128 | -6.69337 | 38107 ft | 410 kts | 212° |
| 2026-04-24 09:27 | 43.73420 | -6.73846 | 38110 ft | 411 kts | 212° |
| 2026-04-24 09:27 | 43.68749 | -6.78308 | 38110 ft | 410 kts | 212° |
| 2026-04-24 09:28 | 43.64041 | -6.82798 | 38112 ft | 411 kts | 212° |
| 2026-04-24 09:28 | 43.59333 | -6.87279 | 38114 ft | 410 kts | 212° |
| 2026-04-24 09:29 | 43.54637 | -6.91741 | 38114 ft | 410 kts | 212° |
| 2026-04-24 09:29 | 43.49968 | -6.96168 | 38112 ft | 410 kts | 212° |
| 2026-04-24 09:30 | 43.44467 | -7.01372 | 38106 ft | 410 kts | 212° |
| 2026-04-24 09:30 | 43.40551 | -7.05071 | 38123 ft | 410 kts | 212° |
| 2026-04-24 09:31 | 43.35843 | -7.09509 | 38117 ft | 410 kts | 212° |
| 2026-04-24 09:31 | 43.31199 | -7.13879 | 38109 ft | 404 kts | 212° |
| 2026-04-24 09:32 | 43.26562 | -7.18233 | 38121 ft | 404 kts | 212° |
| 2026-04-24 09:32 | 43.21921 | -7.22584 | 38146 ft | 404 kts | 212° |
| 2026-04-24 09:33 | 43.17278 | -7.26928 | 38123 ft | 403 kts | 212° |
| 2026-04-24 09:33 | 43.12667 | -7.31235 | 38122 ft | 404 kts | 212° |
| 2026-04-24 09:34 | 43.08011 | -7.35574 | 38120 ft | 404 kts | 212° |
| 2026-04-24 09:34 | 43.03382 | -7.39881 | 38122 ft | 404 kts | 212° |
| 2026-04-24 09:35 | 42.98726 | -7.44205 | 38127 ft | 404 kts | 212° |
| 2026-04-24 09:35 | 42.94070 | -7.48521 | 38127 ft | 404 kts | 212° |
| 2026-04-24 09:36 | 42.89415 | -7.52827 | 38127 ft | 404 kts | 212° |
| 2026-04-24 09:36 | 42.84756 | -7.57130 | 38119 ft | 404 kts | 212° |
| 2026-04-24 09:37 | 42.80126 | -7.61399 | 38145 ft | 404 kts | 212° |
| 2026-04-24 09:37 | 42.75457 | -7.65696 | 38123 ft | 406 kts | 212° |
| 2026-04-24 09:38 | 42.70833 | -7.69945 | 38130 ft | 407 kts | 212° |
| 2026-04-24 09:38 | 42.66162 | -7.74230 | 38127 ft | 407 kts | 212° |
| 2026-04-24 09:39 | 42.61348 | -7.78259 | 38102 ft | 403 kts | 198° |
| 2026-04-24 09:39 | 42.56005 | -7.80417 | 38096 ft | 403 kts | 195° |
| 2026-04-24 09:40 | 42.50607 | -7.82497 | 37633 ft | 402 kts | 194° |
| 2026-04-24 09:40 | 42.47886 | -7.83522 | 36670 ft | 409 kts | 194° |
| 2026-04-24 09:40 | 42.45127 | -7.84555 | 35794 ft | 413 kts | 193° |
| 2026-04-24 09:41 | 42.42336 | -7.85600 | 34948 ft | 417 kts | 193° |
| 2026-04-24 09:41 | 42.39565 | -7.86635 | 34132 ft | 420 kts | 192° |
| 2026-04-24 09:41 | 42.36743 | -7.87690 | 33205 ft | 421 kts | 192° |
| 2026-04-24 09:41 | 42.33901 | -7.88751 | 32285 ft | 423 kts | 192° |
| 2026-04-24 09:42 | 42.31054 | -7.89812 | 31396 ft | 425 kts | 192° |
| 2026-04-24 09:42 | 42.28190 | -7.90878 | 30541 ft | 426 kts | 192° |
| 2026-04-24 09:42 | 42.25333 | -7.91942 | 29638 ft | 427 kts | 192° |
| 2026-04-24 09:42 | 42.22466 | -7.93010 | 28683 ft | 427 kts | 193° |
| 2026-04-24 09:43 | 42.19591 | -7.94077 | 27763 ft | 428 kts | 193° |
| 2026-04-24 09:43 | 42.16719 | -7.95143 | 26879 ft | 428 kts | 193° |
| 2026-04-24 09:43 | 42.13876 | -7.96196 | 26030 ft | 428 kts | 194° |
| 2026-04-24 09:43 | 42.10997 | -7.97262 | 25200 ft | 428 kts | 194° |
| 2026-04-24 09:44 | 42.08119 | -7.98327 | 24386 ft | 428 kts | 195° |
| 2026-04-24 09:44 | 42.05244 | -7.99389 | 23597 ft | 428 kts | 195° |
| 2026-04-24 09:44 | 42.02373 | -8.00448 | 22674 ft | 427 kts | 195° |
| 2026-04-24 09:44 | 41.99501 | -8.01507 | 21787 ft | 427 kts | 195° |
| 2026-04-24 09:45 | 41.96673 | -8.02549 | 20993 ft | 425 kts | 195° |
| 2026-04-24 09:45 | 41.93836 | -8.03594 | 20502 ft | 417 kts | 195° |
| 2026-04-24 09:45 | 41.91068 | -8.04612 | 20089 ft | 408 kts | 195° |
| 2026-04-24 09:45 | 41.88361 | -8.05607 | 19676 ft | 399 kts | 195° |
| 2026-04-24 09:46 | 41.85692 | -8.06588 | 19189 ft | 394 kts | 195° |
| 2026-04-24 09:46 | 41.83054 | -8.07556 | 18737 ft | 389 kts | 195° |
| 2026-04-24 09:46 | 41.80529 | -8.08800 | 18263 ft | 385 kts | 209° |
| 2026-04-24 09:46 | 41.78261 | -8.10562 | 17858 ft | 379 kts | 209° |
| 2026-04-24 09:47 | 41.75981 | -8.12266 | 17461 ft | 373 kts | 209° |
| 2026-04-24 09:47 | 41.73730 | -8.13949 | 17074 ft | 368 kts | 209° |
| 2026-04-24 09:47 | 41.71515 | -8.15604 | 16695 ft | 363 kts | 209° |
| 2026-04-24 09:47 | 41.69237 | -8.17043 | 16239 ft | 359 kts | 198° |
| 2026-04-24 09:48 | 41.66875 | -8.18079 | 15894 ft | 353 kts | 199° |
| 2026-04-24 09:48 | 41.64567 | -8.19123 | 15543 ft | 347 kts | 199° |
| 2026-04-24 09:48 | 41.62296 | -8.20157 | 15189 ft | 342 kts | 199° |
| 2026-04-24 09:48 | 41.60084 | -8.21167 | 14834 ft | 338 kts | 199° |
| 2026-04-24 09:49 | 41.57869 | -8.22179 | 14490 ft | 334 kts | 199° |
| 2026-04-24 09:49 | 41.55675 | -8.23182 | 14132 ft | 330 kts | 199° |
| 2026-04-24 09:49 | 41.53512 | -8.24169 | 13770 ft | 327 kts | 199° |
| 2026-04-24 09:49 | 41.51371 | -8.25146 | 13391 ft | 323 kts | 199° |
| 2026-04-24 09:50 | 41.49255 | -8.26110 | 13032 ft | 318 kts | 199° |
| 2026-04-24 09:50 | 41.47194 | -8.27049 | 12711 ft | 314 kts | 199° |
| 2026-04-24 09:50 | 41.45134 | -8.27987 | 12380 ft | 310 kts | 199° |
| 2026-04-24 09:50 | 41.43096 | -8.28915 | 12052 ft | 306 kts | 199° |
| 2026-04-24 09:51 | 41.41088 | -8.29828 | 11697 ft | 303 kts | 199° |
| 2026-04-24 09:51 | 41.39119 | -8.30721 | 11377 ft | 300 kts | 199° |
| 2026-04-24 09:51 | 41.37156 | -8.31613 | 11082 ft | 296 kts | 199° |
| 2026-04-24 09:51 | 41.35217 | -8.32492 | 10771 ft | 292 kts | 198° |
| 2026-04-24 09:52 | 41.33299 | -8.33362 | 10476 ft | 289 kts | 198° |
| 2026-04-24 09:52 | 41.31401 | -8.34222 | 10169 ft | 286 kts | 198° |
| 2026-04-24 09:52 | 41.29532 | -8.35068 | 9914 ft | 282 kts | 199° |
| 2026-04-24 09:52 | 41.27679 | -8.35906 | 9577 ft | 279 kts | 199° |
| 2026-04-24 09:53 | 41.25873 | -8.36723 | 9274 ft | 276 kts | 199° |
| 2026-04-24 09:53 | 41.24067 | -8.37539 | 8985 ft | 273 kts | 199° |
| 2026-04-24 09:53 | 41.22277 | -8.38348 | 8687 ft | 270 kts | 199° |
| 2026-04-24 09:53 | 41.20508 | -8.39147 | 8400 ft | 267 kts | 199° |
| 2026-04-24 09:54 | 41.18748 | -8.39940 | 8112 ft | 264 kts | 199° |
| 2026-04-24 09:54 | 41.17014 | -8.40722 | 7829 ft | 261 kts | 199° |
| 2026-04-24 09:54 | 41.15299 | -8.41495 | 7546 ft | 259 kts | 199° |
| 2026-04-24 09:54 | 41.13623 | -8.42251 | 7277 ft | 257 kts | 198° |
| 2026-04-24 09:55 | 41.11936 | -8.43010 | 7001 ft | 254 kts | 198° |
| 2026-04-24 09:55 | 41.10266 | -8.43761 | 6750 ft | 252 kts | 199° |
| 2026-04-24 09:55 | 41.08604 | -8.44509 | 6452 ft | 251 kts | 198° |
| 2026-04-24 09:55 | 41.06973 | -8.45242 | 6162 ft | 249 kts | 198° |
| 2026-04-24 09:56 | 41.05317 | -8.45986 | 5869 ft | 254 kts | 198° |
| 2026-04-24 09:56 | 41.03627 | -8.46745 | 5598 ft | 258 kts | 198° |
| 2026-04-24 09:56 | 41.01928 | -8.47580 | 5298 ft | 261 kts | 208° |
| 2026-04-24 09:56 | 41.00586 | -8.49176 | 4941 ft | 262 kts | 237° |
| 2026-04-24 09:57 | 40.99938 | -8.51377 | 4648 ft | 259 kts | 258° |
| 2026-04-24 09:57 | 40.99567 | -8.53695 | 4399 ft | 256 kts | 258° |
| 2026-04-24 09:57 | 40.99206 | -8.55983 | 4200 ft | 250 kts | 259° |
| 2026-04-24 09:57 | 40.99145 | -8.58226 | 4054 ft | 240 kts | 284° |
| 2026-04-24 09:58 | 40.99850 | -8.60108 | 4048 ft | 219 kts | 311° |
| 2026-04-24 09:58 | 41.00979 | -8.61261 | 3995 ft | 200 kts | 336° |
| 2026-04-24 09:58 | 41.02278 | -8.61863 | 3685 ft | 198 kts | 345° |
| 2026-04-24 09:58 | 41.03602 | -8.62331 | 3444 ft | 194 kts | 346° |
| 2026-04-24 09:59 | 41.04846 | -8.62731 | 3336 ft | 174 kts | 347° |
| 2026-04-24 09:59 | 41.06007 | -8.63080 | 3155 ft | 170 kts | 348° |
| 2026-04-24 09:59 | 41.07156 | -8.63412 | 2953 ft | 167 kts | 348° |
| 2026-04-24 09:59 | 41.08225 | -8.63713 | 2859 ft | 152 kts | 349° |
| 2026-04-24 10:00 | 41.09249 | -8.63992 | 2646 ft | 148 kts | 349° |
| 2026-04-24 10:00 | 41.10243 | -8.64256 | 2480 ft | 145 kts | 349° |
| 2026-04-24 10:00 | 41.11234 | -8.64525 | 2307 ft | 145 kts | 349° |
| 2026-04-24 10:00 | 41.12228 | -8.64793 | 2060 ft | 146 kts | 349° |
| 2026-04-24 10:01 | 41.12902 | -8.64971 | 1860 ft | 146 kts | 349° |
| 2026-04-24 10:01 | 41.13880 | -8.65241 | 1578 ft | 145 kts | 348° |
| 2026-04-24 10:01 | 41.14885 | -8.65508 | 1316 ft | 146 kts | 349° |
| 2026-04-24 10:01 | 41.15870 | -8.65768 | 1105 ft | 147 kts | 349° |
| 2026-04-24 10:02 | 41.16876 | -8.66033 | 907 ft | 148 kts | 349° |
| 2026-04-24 10:02 | 41.17882 | -8.66299 | 778 ft | 148 kts | 348° |
| 2026-04-24 10:02 | 41.18891 | -8.66562 | 697 ft | 148 kts | 349° |
| 2026-04-24 10:02 | 41.19904 | -8.66844 | 587 ft | 148 kts | 347° |
| 2026-04-24 10:03 | 41.20910 | -8.67138 | 541 ft | 149 kts | 348° |
| 2026-04-24 10:03 | 41.21922 | -8.67401 | 474 ft | 148 kts | 351° |
| 2026-04-24 10:03 | 41.22932 | -8.67649 | 379 ft | 147 kts | 349° |
| 2026-04-24 10:03 | 41.23935 | -8.67909 | 274 ft | 143 kts | 349° |
| 2026-04-24 10:04 | 41.24799 | -8.68133 | 239 ft | 100 kts | 349° |
| 2026-04-24 10:04 | 41.25189 | -8.68150 | 221 ft | 23 kts | 18° |
| 2026-04-24 10:04 | 41.25272 | -8.68108 | 219 ft | 9 kts | 41° |
| 2026-04-24 10:04 | 41.25265 | -8.68020 | 218 ft | 13 kts | 150° |
| 2026-04-24 10:05 | 41.25168 | -8.67989 | 224 ft | 15 kts | 169° |
| 2026-04-24 10:05 | 41.25068 | -8.67963 | 224 ft | 14 kts | 168° |
| 2026-04-24 10:05 | 41.24969 | -8.67935 | 229 ft | 15 kts | 168° |
| 2026-04-24 10:05 | 41.24861 | -8.67896 | 232 ft | 17 kts | 156° |
| 2026-04-24 10:06 | 41.24752 | -8.67826 | 237 ft | 18 kts | 163° |
| 2026-04-24 10:06 | 41.24478 | -8.67749 | 245 ft | 22 kts | 168° |
| 2026-04-24 10:06 | 41.24324 | -8.67707 | 246 ft | 23 kts | 157° |
| 2026-04-24 10:07 | 41.24227 | -8.67593 | 249 ft | 19 kts | 152° |
| 2026-04-24 10:07 | 41.24091 | -8.67545 | 252 ft | 22 kts | 168° |
| 2026-04-24 10:07 | 41.23939 | -8.67505 | 258 ft | 22 kts | 169° |
| 2026-04-24 10:07 | 41.23790 | -8.67462 | 260 ft | 19 kts | 165° |
| 2026-04-24 10:08 | 41.23768 | -8.67409 | 260 ft | 6 kts | 66° |
| 2026-04-24 10:08 | 41.23794 | -8.67366 | 259 ft | 2 kts | 49° |
| 2026-04-24 10:08 | 41.23800 | -8.67355 | 259 ft | 0 kts | 49° |
| 2026-04-24 10:08 | 41.23801 | -8.67355 | 259 ft | 0 kts | 49° |